Fitler, Mississippi
Current Conditions -  °F | °C
As of 3:53 AM on Saturday 22 Nov 2014 (Local Time) from KTVR Reporting Station
Overcast Overcast  
Wind Chill: 54°   Ceiling: 10000
Heat Index: 54°   Visibility: 10mi
Dew Point: 47°   Wind: 3mph
Humidity: 77%   Direction: 60°ENE
Pressure: 30.26"   Gusts: NA
Location:  32.8112°N, 90.8327°W
Report Text: KTVR 220953Z AUTO 06003KT 10SM OVC100 12/08 A3026 RMK AO2 SLP255 T01220083
Loading
Personal Weather Stations






























Interactive Weather Map New forecast layout! Learn more

10-Day Weather Forecast

Advertisements
Track Severe Weather on mobile